Time;durP1;ratioP1;P1;durP2;ratioP2;P2;SDS_P1;SDS_P2;PMS_P1;PMS_P2;Temp;Humidity;BMP_temperature;BMP_pressure;BME280_temperature;BME280_humidity;BME280_pressure;Samples;Min_cycle;Max_cycle;Signal;HPM_P1;HPM_P2
2021/11/08 00:01:20;;;;;;;10.07;5.60;;;8.50;91.70;;;;;;4945628;29;20516;-77
2021/11/08 00:03:48;;;;;;;14.43;6.97;;;8.50;91.60;;;;;;4949477;28;20467;-77
2021/11/08 00:06:16;;;;;;;13.13;6.10;;;8.50;91.60;;;;;;4951818;28;20493;-76
2021/11/08 00:08:42;;;;;;;14.40;6.40;;;8.60;91.70;;;;;;4949213;29;20419;-77
2021/11/08 00:11:08;;;;;;;11.03;6.07;;;8.60;91.60;;;;;;4950783;29;20576;-76
2021/11/08 00:13:37;;;;;;;14.07;6.30;;;8.60;91.50;;;;;;4951099;29;20435;-76
2021/11/08 00:21:07;;;;;;;12.67;6.03;;;8.50;91.60;;;;;;4951702;28;21151;-76
2021/11/08 00:23:34;;;;;;;13.70;6.67;;;8.50;91.60;;;;;;4949363;28;20459;-77
2021/11/08 00:26:01;;;;;;;12.43;6.20;;;8.50;91.70;;;;;;4950007;29;20537;-77
2021/11/08 00:28:27;;;;;;;12.80;6.50;;;8.50;91.40;;;;;;4947534;28;20431;-77
2021/11/08 00:30:54;;;;;;;8.33;5.60;;;8.50;91.40;;;;;;4957461;28;20946;-77
2021/11/08 00:33:21;;;;;;;9.93;5.80;;;8.40;91.20;;;;;;4958828;28;20423;-76
2021/11/08 00:35:50;;;;;;;20.37;7.40;;;8.40;91.40;;;;;;4947297;28;20442;-76
2021/11/08 00:38:17;;;;;;;13.03;6.50;;;8.40;91.50;;;;;;4953887;28;20424;-76
2021/11/08 00:40:44;;;;;;;9.03;5.50;;;8.40;91.30;;;;;;4947659;28;20474;-76
2021/11/08 00:43:12;;;;;;;11.20;6.40;;;8.40;91.50;;;;;;4949570;29;20939;-76
2021/11/08 00:45:39;;;;;;;18.87;6.47;;;8.40;91.40;;;;;;4945877;29;20475;-76
2021/11/08 00:48:06;;;;;;;20.97;6.07;;;8.30;91.60;;;;;;4956685;29;21264;-76
2021/11/08 00:50:33;;;;;;;12.83;5.77;;;8.20;91.90;;;;;;4961291;28;20424;-76
2021/11/08 00:53:00;;;;;;;14.10;7.00;;;8.10;92.10;;;;;;4951760;29;20423;-77
2021/11/08 00:55:26;;;;;;;13.70;5.87;;;8.10;92.40;;;;;;4952067;28;20446;-77
2021/11/08 00:57:55;;;;;;;10.77;5.90;;;8.10;92.60;;;;;;4949709;29;20458;-76
2021/11/08 01:00:25;;;;;;;15.73;6.90;;;8.10;92.60;;;;;;4953137;29;20491;-77
2021/11/08 01:02:51;;;;;;;9.93;6.20;;;8.10;92.40;;;;;;4948385;29;20435;-76
2021/11/08 01:05:18;;;;;;;13.00;6.77;;;8.00;92.70;;;;;;4953995;28;20482;-78
2021/11/08 01:07:44;;;;;;;14.83;7.20;;;7.90;92.90;;;;;;4954186;28;21246;-76
2021/11/08 01:10:15;;;;;;;15.50;6.07;;;7.90;93.20;;;;;;4953977;29;20512;-78
2021/11/08 01:12:41;;;;;;;10.37;6.30;;;7.90;93.20;;;;;;4954325;28;20475;-77
2021/11/08 01:15:08;;;;;;;17.53;6.50;;;7.80;93.40;;;;;;4952297;28;20428;-77
2021/11/08 01:17:35;;;;;;;11.60;5.20;;;7.70;93.50;;;;;;4954584;28;20446;-77
2021/11/08 01:20:02;;;;;;;17.53;8.00;;;7.70;93.70;;;;;;4951118;28;20424;-76
2021/11/08 01:22:28;;;;;;;15.20;6.47;;;7.60;93.90;;;;;;4954089;29;20432;-77
2021/11/08 01:24:55;;;;;;;11.43;6.50;;;7.60;94.00;;;;;;4949097;28;20472;-77
2021/11/08 01:27:22;;;;;;;14.83;7.50;;;7.50;94.10;;;;;;4953232;29;20454;-77
2021/11/08 01:29:48;;;;;;;8.67;5.73;;;7.40;94.10;;;;;;4953789;28;20506;-77
2021/11/08 01:32:14;;;;;;;12.17;5.67;;;7.40;94.30;;;;;;4952653;28;20646;-76
2021/11/08 01:34:40;;;;;;;12.53;6.10;;;7.40;94.30;;;;;;4949008;29;20821;-78
2021/11/08 01:37:06;;;;;;;13.87;5.80;;;7.30;94.20;;;;;;4954550;28;20459;-78
2021/11/08 01:39:33;;;;;;;14.00;7.10;;;7.30;94.30;;;;;;4953286;29;20242;-76
2021/11/08 01:42:08;;;;;;;14.27;6.30;;;7.20;94.50;;;;;;4951883;28;20796;-77
2021/11/08 01:44:35;;;;;;;12.33;6.13;;;7.20;94.60;;;;;;4950614;29;20470;-78
2021/11/08 01:47:02;;;;;;;13.50;6.07;;;7.10;94.50;;;;;;4947335;28;20533;-77
2021/11/08 01:49:29;;;;;;;15.63;6.50;;;7.10;94.50;;;;;;4952536;29;20427;-77
2021/11/08 01:51:55;;;;;;;10.37;5.73;;;7.10;94.60;;;;;;4950552;29;20470;-77
2021/11/08 01:54:22;;;;;;;17.97;6.60;;;7.10;94.60;;;;;;4942477;29;20534;-76
2021/11/08 01:56:50;;;;;;;13.23;6.60;;;7.10;94.50;;;;;;4945468;28;20447;-77
2021/11/08 01:59:16;;;;;;;22.57;5.67;;;7.10;94.50;;;;;;4954063;29;20431;-78
2021/11/08 02:01:41;;;;;;;13.90;5.90;;;7.00;94.40;;;;;;4948206;28;20495;-77
2021/11/08 02:04:07;;;;;;;12.70;5.43;;;6.90;94.40;;;;;;4951705;28;20505;-78
2021/11/08 02:06:33;;;;;;;19.63;5.80;;;6.90;94.50;;;;;;4951161;28;20698;-77
2021/11/08 02:08:59;;;;;;;14.13;5.50;;;6.90;94.50;;;;;;4952598;28;20180;-77
2021/11/08 02:11:24;;;;;;;10.67;5.40;;;6.80;94.70;;;;;;4951814;28;20192;-76
2021/11/08 02:13:53;;;;;;;10.47;5.77;;;6.80;94.80;;;;;;4944426;29;20196;-77
2021/11/08 02:16:19;;;;;;;11.57;6.50;;;6.70;94.90;;;;;;4952271;29;20473;-77
2021/11/08 02:18:46;;;;;;;16.97;6.83;;;6.60;94.90;;;;;;4947472;29;20494;-78
2021/11/08 02:21:12;;;;;;;13.57;5.60;;;6.50;95.10;;;;;;4943181;28;20439;-77
2021/11/08 02:23:41;;;;;;;14.13;5.90;;;6.50;95.40;;;;;;4945316;29;20459;-77
2021/11/08 02:26:15;;;;;;;14.77;5.80;;;6.40;95.60;;;;;;4951295;28;20462;-77
2021/11/08 02:28:44;;;;;;;19.53;6.13;;;6.40;95.80;;;;;;4942850;29;20423;-76
2021/11/08 02:31:15;;;;;;;14.57;7.10;;;6.30;95.90;;;;;;4951175;29;20423;-77
2021/11/08 02:33:41;;;;;;;10.80;5.40;;;6.30;95.90;;;;;;4949970;29;20463;-78
2021/11/08 02:36:08;;;;;;;13.07;6.43;;;6.20;96.00;;;;;;4941763;28;20503;-78
2021/11/08 02:38:38;;;;;;;12.50;6.40;;;6.10;96.10;;;;;;4951860;29;20427;-78
2021/11/08 02:41:04;;;;;;;12.83;6.30;;;6.00;96.10;;;;;;4943710;28;20435;-77
2021/11/08 02:43:30;;;;;;;13.93;5.80;;;6.00;96.30;;;;;;4944903;28;20890;-78
2021/11/08 02:46:06;;;;;;;10.30;5.63;;;6.00;96.60;;;;;;4952581;28;20475;-76
2021/11/08 02:48:33;;;;;;;13.63;7.10;;;6.00;96.70;;;;;;4946498;29;20427;-78
2021/11/08 02:51:09;;;;;;;10.70;6.10;;;5.90;96.70;;;;;;4953313;28;20448;-76
2021/11/08 02:53:37;;;;;;;13.50;6.90;;;5.90;96.70;;;;;;4957450;28;21164;-76
2021/11/08 02:56:04;;;;;;;12.60;6.80;;;5.80;96.70;;;;;;4953801;28;20452;-78
2021/11/08 02:58:30;;;;;;;22.50;7.13;;;5.60;96.90;;;;;;4947165;29;20423;-77
2021/11/08 03:00:56;;;;;;;12.40;6.03;;;5.60;97.20;;;;;;4947665;29;20923;-76
2021/11/08 03:03:29;;;;;;;14.40;5.53;;;5.60;97.30;;;;;;4948708;29;20963;-77
2021/11/08 03:06:04;;;;;;;10.97;6.00;;;5.60;97.40;;;;;;4951701;28;20498;-77
2021/11/08 03:08:29;;;;;;;18.50;7.20;;;5.60;97.50;;;;;;4946674;29;20465;-77
2021/11/08 03:10:57;;;;;;;20.70;7.97;;;5.60;97.60;;;;;;4952405;29;21280;-76
2021/11/08 03:13:24;;;;;;;14.50;7.40;;;5.60;97.70;;;;;;4955573;28;20207;-77
2021/11/08 03:16:07;;;;;;;14.10;7.10;;;5.50;97.70;;;;;;4947983;28;20458;-76
2021/11/08 03:18:38;;;;;;;18.40;8.10;;;5.40;97.80;;;;;;4950506;29;20466;-77
2021/11/08 03:21:13;;;;;;;13.53;7.93;;;5.40;98.10;;;;;;4951293;28;20439;-76
2021/11/08 03:23:39;;;;;;;14.53;7.00;;;5.30;98.10;;;;;;4944294;29;21007;-77
2021/11/08 03:26:33;;;;;;;31.43;11.90;;;5.40;98.10;;;;;;4951509;28;20464;-78
2021/11/08 03:28:59;;;;;;;17.10;8.13;;;5.40;98.10;;;;;;4951043;29;20847;-77
2021/11/08 03:31:26;;;;;;;24.07;7.40;;;5.40;98.20;;;;;;4949151;28;20823;-75
2021/11/08 03:33:53;;;;;;;13.53;7.30;;;5.40;98.10;;;;;;4951941;29;20931;-75
2021/11/08 03:36:19;;;;;;;15.03;8.00;;;5.30;98.00;;;;;;4943685;28;20828;-77
2021/11/08 03:38:45;;;;;;;14.40;8.10;;;5.30;98.00;;;;;;4955661;29;20427;-75
2021/11/08 03:41:11;;;;;;;12.97;6.20;;;5.30;98.10;;;;;;4953354;28;20428;-76
2021/11/08 03:43:39;;;;;;;19.37;7.20;;;5.20;98.20;;;;;;4950906;28;20498;-76
2021/11/08 03:46:05;;;;;;;13.23;7.13;;;5.30;98.20;;;;;;4951164;28;20488;-76
2021/11/08 03:48:31;;;;;;;13.70;6.53;;;5.30;98.10;;;;;;4942891;29;20882;-77
2021/11/08 03:50:57;;;;;;;17.60;6.80;;;5.20;98.00;;;;;;4950842;29;20431;-76
2021/11/08 03:53:23;;;;;;;18.00;7.10;;;5.20;98.00;;;;;;4949711;28;20443;-77
2021/11/08 03:55:50;;;;;;;17.03;8.50;;;5.10;98.10;;;;;;4946171;28;20444;-75
2021/11/08 03:58:16;;;;;;;12.80;7.63;;;5.10;98.20;;;;;;4949217;29;20431;-75
2021/11/08 04:00:43;;;;;;;11.60;6.30;;;5.10;98.20;;;;;;4950580;29;20435;-76
2021/11/08 04:03:11;;;;;;;15.70;6.53;;;5.10;98.20;;;;;;4950558;28;20439;-76
2021/11/08 04:05:38;;;;;;;15.47;7.20;;;5.10;98.20;;;;;;4950707;28;20463;-76
2021/11/08 04:08:09;;;;;;;16.50;8.10;;;5.00;98.20;;;;;;4942821;28;20810;-77
2021/11/08 04:10:36;;;;;;;18.93;7.53;;;5.00;98.20;;;;;;4954704;28;20604;-76
2021/11/08 04:13:05;;;;;;;17.10;8.33;;;5.00;98.30;;;;;;4954452;28;20435;-76
2021/11/08 04:15:39;;;;;;;15.90;7.60;;;5.00;98.30;;;;;;4940021;28;20958;-76
2021/11/08 04:18:09;;;;;;;19.03;7.90;;;4.90;98.30;;;;;;4954121;28;20506;-76
2021/11/08 04:20:36;;;;;;;19.10;8.90;;;4.80;98.40;;;;;;4952951;29;20486;-76
2021/11/08 04:23:04;;;;;;;17.50;7.33;;;4.80;98.40;;;;;;4954406;28;20451;-77
2021/11/08 04:25:30;;;;;;;22.73;8.13;;;4.80;98.50;;;;;;4952881;28;20438;-75
2021/11/08 04:27:57;;;;;;;20.23;8.57;;;4.70;98.50;;;;;;4963234;28;20446;-75
2021/11/08 04:30:25;;;;;;;24.73;8.40;;;4.80;98.60;;;;;;4956189;29;20431;-77
2021/11/08 04:33:11;;;;;;;16.60;6.67;;;4.70;98.60;;;;;;4951920;28;20440;-77
2021/11/08 05:31:39;;;;;;;13.57;7.80;;;4.60;99.10;;;;;;4969915;28;20511;-75
2021/11/08 05:34:05;;;;;;;16.33;6.87;;;4.50;99.00;;;;;;4948700;28;20439;-78
2021/11/08 05:36:31;;;;;;;19.37;8.37;;;4.50;99.00;;;;;;4954537;28;21018;-76
2021/11/08 05:38:57;;;;;;;13.87;6.83;;;4.40;98.90;;;;;;4955800;28;20235;-77
2021/11/08 05:41:23;;;;;;;12.40;5.50;;;4.40;98.90;;;;;;4950900;28;20199;-77
2021/11/08 05:43:49;;;;;;;16.57;6.80;;;4.40;99.00;;;;;;4947107;28;20455;-76
2021/11/08 05:46:15;;;;;;;15.37;6.83;;;4.50;99.00;;;;;;4952266;28;20219;-78
2021/11/08 05:48:41;;;;;;;14.87;7.40;;;4.60;98.90;;;;;;4946558;28;20176;-77
2021/11/08 05:51:08;;;;;;;19.90;7.60;;;4.60;98.90;;;;;;4952351;29;20436;-77
2021/11/08 05:53:34;;;;;;;14.10;7.57;;;4.60;98.90;;;;;;4952719;28;20466;-76
2021/11/08 05:59:06;;;;;;;14.37;8.30;;;4.50;98.60;;;;;;4959315;28;20450;-78
2021/11/08 06:51:00;;;;;;;18.33;8.00;;;4.30;97.90;;;;;;4952321;29;20894;-76
2021/11/08 06:53:28;;;;;;;21.50;8.77;;;4.30;98.00;;;;;;4950498;28;20839;-78
2021/11/08 06:55:57;;;;;;;21.17;8.70;;;4.40;98.10;;;;;;4947271;28;20661;-77
2021/11/08 06:58:23;;;;;;;16.40;8.67;;;4.40;98.10;;;;;;4949922;29;20440;-79
2021/11/08 07:00:50;;;;;;;21.33;9.47;;;4.50;98.00;;;;;;4951067;29;20434;-76
2021/11/08 07:03:16;;;;;;;18.70;8.17;;;4.50;98.10;;;;;;4949497;28;20546;-76
2021/11/08 07:05:42;;;;;;;16.50;8.50;;;4.50;98.10;;;;;;4948802;28;20494;-79
2021/11/08 07:08:10;;;;;;;14.73;8.83;;;4.50;98.10;;;;;;4952606;28;20850;-78
2021/11/08 07:10:37;;;;;;;17.30;9.13;;;4.60;98.20;;;;;;4944175;29;20491;-77
2021/11/08 07:13:03;;;;;;;21.17;9.87;;;4.60;98.20;;;;;;4951247;28;20930;-76
2021/11/08 07:15:30;;;;;;;25.57;9.50;;;4.70;98.20;;;;;;4951586;28;20539;-77
2021/11/08 07:17:56;;;;;;;18.10;9.13;;;4.70;98.00;;;;;;4950832;28;20452;-79
2021/11/08 07:20:23;;;;;;;21.37;9.03;;;4.80;97.80;;;;;;4951293;28;20840;-78
2021/11/08 07:22:50;;;;;;;15.83;9.27;;;4.70;97.50;;;;;;4943849;28;20795;-77
2021/11/08 07:25:16;;;;;;;14.93;9.20;;;4.70;97.40;;;;;;4947296;28;20467;-78
2021/11/08 07:27:43;;;;;;;15.87;8.50;;;4.80;97.40;;;;;;4951705;28;20451;-76
2021/11/08 07:30:10;;;;;;;23.47;9.43;;;4.80;97.40;;;;;;4948562;29;20458;-77
2021/11/08 07:32:36;;;;;;;22.87;9.30;;;4.80;97.50;;;;;;4949260;29;20427;-78
2021/11/08 07:35:02;;;;;;;19.53;8.40;;;4.90;97.40;;;;;;4941813;29;20454;-78
2021/11/08 07:37:28;;;;;;;19.70;9.73;;;4.90;97.40;;;;;;4952143;28;20446;-76
2021/11/08 07:39:54;;;;;;;20.07;9.37;;;5.00;97.40;;;;;;4953397;28;20868;-78
2021/11/08 07:42:20;;;;;;;14.80;8.60;;;5.00;97.40;;;;;;4953394;28;20678;-77
2021/11/08 07:44:46;;;;;;;18.27;9.70;;;4.90;97.30;;;;;;4953836;28;20798;-78
2021/11/08 07:47:12;;;;;;;17.33;9.70;;;4.80;97.00;;;;;;4954970;28;20586;-78
2021/11/08 07:49:38;;;;;;;17.97;9.33;;;4.80;96.90;;;;;;4968015;28;20419;-78
2021/11/08 07:52:05;;;;;;;20.40;9.17;;;4.80;96.80;;;;;;4955006;28;20418;-77
2021/11/08 07:54:32;;;;;;;17.20;9.00;;;4.90;96.70;;;;;;4955710;29;20430;-78
2021/11/08 07:57:02;;;;;;;17.97;10.40;;;5.00;96.50;;;;;;4945941;28;20490;-77
2021/11/08 07:59:28;;;;;;;24.83;10.40;;;5.00;96.40;;;;;;4955687;29;20870;-77
2021/11/08 08:01:54;;;;;;;23.43;9.77;;;5.00;96.50;;;;;;4954034;29;20463;-79
2021/11/08 08:04:20;;;;;;;21.27;11.83;;;5.10;96.40;;;;;;4954533;28;20489;-79
2021/11/08 08:06:48;;;;;;;26.40;11.30;;;5.10;96.30;;;;;;4953890;28;20820;-78
2021/11/08 08:09:16;;;;;;;19.60;10.50;;;5.20;96.30;;;;;;4953361;29;20443;-77
2021/11/08 08:11:42;;;;;;;18.87;9.30;;;5.20;96.10;;;;;;4951241;28;20430;-77
2021/11/08 08:14:08;;;;;;;20.30;10.70;;;5.30;96.20;;;;;;4952065;29;20510;-78
2021/11/08 08:16:34;;;;;;;21.63;9.43;;;5.40;96.10;;;;;;4953617;28;20447;-78
2021/11/08 08:19:00;;;;;;;22.80;9.87;;;5.40;96.00;;;;;;4950903;29;20477;-77
2021/11/08 08:21:26;;;;;;;15.40;9.50;;;5.40;96.00;;;;;;4955074;29;20276;-78
2021/11/08 08:23:55;;;;;;;21.43;10.50;;;5.40;96.20;;;;;;4954366;28;20214;-77
2021/11/08 08:26:23;;;;;;;27.90;10.90;;;5.50;96.20;;;;;;4942302;28;20451;-78
2021/11/08 08:28:50;;;;;;;18.57;10.33;;;5.50;96.40;;;;;;4954770;28;20455;-79
2021/11/08 08:31:15;;;;;;;20.00;10.50;;;5.60;96.50;;;;;;4966156;28;20478;-78
2021/11/08 08:33:41;;;;;;;26.87;11.70;;;5.70;96.60;;;;;;4965971;29;20524;-77
2021/11/08 08:36:07;;;;;;;21.40;10.60;;;5.70;96.60;;;;;;4954524;28;20213;-77
2021/11/08 08:38:33;;;;;;;18.00;10.00;;;5.80;96.50;;;;;;4953834;28;20659;-77
2021/11/08 08:40:59;;;;;;;24.60;10.40;;;5.80;96.50;;;;;;4954465;28;20619;-79
2021/11/08 08:43:28;;;;;;;19.67;9.90;;;5.90;96.40;;;;;;4954558;28;20761;-77
2021/11/08 08:45:56;;;;;;;19.43;10.47;;;6.00;96.50;;;;;;4950268;28;20499;-77
2021/11/08 08:48:22;;;;;;;27.97;11.63;;;6.10;96.50;;;;;;4953019;29;20483;-78
2021/11/08 08:50:48;;;;;;;22.23;11.20;;;6.20;96.30;;;;;;4954641;28;20963;-77
2021/11/08 08:53:14;;;;;;;23.67;11.00;;;6.30;96.00;;;;;;4956434;28;20428;-78
2021/11/08 08:55:41;;;;;;;23.20;11.27;;;6.40;95.60;;;;;;4949268;28;20879;-79
2021/11/08 08:58:07;;;;;;;26.60;11.20;;;6.50;95.10;;;;;;4951587;29;20478;-79
2021/11/08 09:00:36;;;;;;;25.10;12.07;;;6.50;95.00;;;;;;4955664;28;20458;-78
2021/11/08 09:03:02;;;;;;;24.07;11.80;;;6.60;95.10;;;;;;4955116;28;20424;-77
2021/11/08 09:05:28;;;;;;;29.73;11.30;;;6.70;95.20;;;;;;4953248;28;20561;-77
2021/11/08 09:07:55;;;;;;;21.50;11.43;;;6.80;95.10;;;;;;4954495;28;20452;-77
2021/11/08 09:10:23;;;;;;;19.83;11.20;;;6.90;95.10;;;;;;4953781;28;20267;-76
2021/11/08 09:12:51;;;;;;;22.43;11.17;;;7.00;95.00;;;;;;4949154;28;20801;-77
2021/11/08 09:15:17;;;;;;;22.63;11.47;;;7.20;94.80;;;;;;4950620;28;20860;-78
2021/11/08 09:17:42;;;;;;;28.97;11.20;;;7.30;94.60;;;;;;4954472;28;20436;-77
2021/11/08 09:20:09;;;;;;;25.00;10.50;;;7.50;94.50;;;;;;4954154;28;20428;-77
2021/11/08 09:22:36;;;;;;;20.03;10.00;;;7.60;94.20;;;;;;4947471;28;20254;-78
2021/11/08 09:25:03;;;;;;;18.97;9.43;;;7.70;94.10;;;;;;4951358;28;20498;-79
2021/11/08 09:27:28;;;;;;;20.07;9.97;;;7.90;93.90;;;;;;4946184;29;20504;-78
2021/11/08 09:29:54;;;;;;;18.00;8.67;;;8.00;93.10;;;;;;4954460;28;20566;-78
2021/11/08 09:32:20;;;;;;;21.43;7.67;;;8.20;91.70;;;;;;4954100;28;20191;-76
2021/11/08 09:34:47;;;;;;;23.73;8.77;;;8.20;90.50;;;;;;4941650;29;20267;-76
2021/11/08 09:37:17;;;;;;;20.33;8.20;;;8.30;90.00;;;;;;4952886;28;20208;-79
2021/11/08 09:39:44;;;;;;;24.23;9.63;;;8.40;89.20;;;;;;4953739;29;20427;-81
2021/11/08 09:42:13;;;;;;;23.30;9.00;;;8.50;89.20;;;;;;4950724;28;20874;-77
2021/11/08 09:44:43;;;;;;;21.57;9.20;;;8.60;88.70;;;;;;4954212;28;20881;-77
2021/11/08 09:47:09;;;;;;;22.80;9.67;;;8.60;88.00;;;;;;4953892;28;20446;-78
2021/11/08 09:49:39;;;;;;;28.60;9.77;;;8.70;87.70;;;;;;4947220;29;20923;-78
2021/11/08 09:52:06;;;;;;;20.53;9.17;;;8.60;87.60;;;;;;4940296;29;20433;-77
2021/11/08 09:54:37;;;;;;;24.77;11.00;;;8.80;88.10;;;;;;4953383;28;20478;-78
2021/11/08 09:57:04;;;;;;;30.43;12.30;;;8.90;87.70;;;;;;4948337;28;20443;-77
2021/11/08 09:59:31;;;;;;;24.87;10.60;;;9.00;87.60;;;;;;4944753;29;20769;-77
2021/11/08 10:01:57;;;;;;;24.00;11.47;;;9.10;87.70;;;;;;4947607;28;20451;-78
2021/11/08 10:04:23;;;;;;;18.10;9.53;;;9.30;86.90;;;;;;4951708;29;21856;-76
2021/11/08 10:06:50;;;;;;;22.03;10.40;;;9.30;86.50;;;;;;4949973;29;20207;-79
2021/11/08 10:09:19;;;;;;;24.13;9.97;;;9.40;86.30;;;;;;4955097;29;20419;-76
2021/11/08 10:11:47;;;;;;;20.03;8.23;;;9.50;85.50;;;;;;4956891;28;20921;-76
2021/11/08 10:14:15;;;;;;;24.33;8.90;;;9.50;85.00;;;;;;4944395;29;20427;-77
2021/11/08 10:16:44;;;;;;;20.83;10.20;;;9.50;85.20;;;;;;4947899;29;20455;-79
2021/11/08 10:19:12;;;;;;;19.77;10.50;;;9.50;85.60;;;;;;4954020;28;20419;-79
2021/11/08 10:21:44;;;;;;;23.40;10.03;;;9.60;85.70;;;;;;4950353;28;20957;-79
2021/11/08 10:24:32;;;;;;;20.53;10.47;;;9.90;85.30;;;;;;4949426;29;20467;-78
2021/11/08 10:27:05;;;;;;;20.73;9.10;;;10.00;83.30;;;;;;4942596;29;20440;-77
2021/11/08 10:29:31;;;;;;;15.90;8.30;;;9.90;82.40;;;;;;4947232;29;20416;-77
2021/11/08 10:32:02;;;;;;;19.77;9.57;;;9.80;82.10;;;;;;4949501;29;20419;-78
2021/11/08 10:34:29;;;;;;;23.77;9.43;;;9.80;83.30;;;;;;4949873;28;20503;-79
2021/11/08 10:37:07;;;;;;;20.23;10.50;;;9.80;84.00;;;;;;4954059;28;20546;-78
2021/11/08 10:39:36;;;;;;;17.20;8.43;;;9.60;83.40;;;;;;4945464;29;20515;-78
2021/11/08 10:42:04;;;;;;;31.20;9.23;;;9.30;83.70;;;;;;4946616;29;20463;-78
2021/11/08 10:44:32;;;;;;;20.47;8.80;;;9.00;84.70;;;;;;4950747;29;20510;-77
2021/11/08 10:47:09;;;;;;;19.40;8.77;;;9.00;85.60;;;;;;4952711;28;20453;-79
2021/11/08 10:49:42;;;;;;;16.87;8.53;;;9.00;85.00;;;;;;4952848;29;20419;-77
2021/11/08 10:52:14;;;;;;;18.23;9.57;;;9.00;85.90;;;;;;4948189;28;20510;-78
2021/11/08 10:54:45;;;;;;;21.47;9.77;;;9.00;85.50;;;;;;4953870;28;20446;-78
2021/11/08 10:57:22;;;;;;;17.30;8.23;;;9.00;85.00;;;;;;4940549;28;20517;-79
2021/11/08 10:59:51;;;;;;;21.07;8.73;;;9.20;85.60;;;;;;4943968;28;20939;-77
2021/11/08 11:02:22;;;;;;;22.07;9.23;;;9.20;84.40;;;;;;4942387;29;20431;-79
2021/11/08 11:04:52;;;;;;;22.50;8.27;;;9.20;84.00;;;;;;4952540;28;20584;-77
2021/11/08 11:07:21;;;;;;;32.77;9.03;;;9.20;83.80;;;;;;4954511;28;20443;-78
2021/11/08 11:09:48;;;;;;;16.47;8.37;;;9.30;84.10;;;;;;4954358;29;20444;-77
2021/11/08 11:12:25;;;;;;;15.77;8.50;;;9.60;81.90;;;;;;4950870;28;20432;-79
2021/11/08 11:15:07;;;;;;;15.53;8.30;;;9.60;80.50;;;;;;4954404;28;20427;-77
2021/11/08 11:17:38;;;;;;;20.80;8.10;;;9.70;79.70;;;;;;4947283;29;20443;-78
2021/11/08 11:20:14;;;;;;;19.47;7.90;;;9.80;80.30;;;;;;4948259;29;20428;-78
2021/11/08 11:22:45;;;;;;;18.13;7.60;;;9.80;80.60;;;;;;4950985;29;20439;-77
2021/11/08 11:25:14;;;;;;;13.10;7.27;;;9.90;80.50;;;;;;4946403;28;20463;-77
2021/11/08 11:27:49;;;;;;;22.47;8.60;;;9.80;80.30;;;;;;4952015;29;20454;-77
2021/11/08 11:30:23;;;;;;;18.90;7.47;;;9.50;81.10;;;;;;4949175;29;20443;-80
2021/11/08 11:33:04;;;;;;;22.93;8.60;;;9.50;81.40;;;;;;4952975;28;20938;-77
2021/11/08 11:35:35;;;;;;;14.77;7.43;;;9.60;81.20;;;;;;4943298;28;20450;-79
2021/11/08 11:38:09;;;;;;;21.63;8.23;;;9.70;80.60;;;;;;4947965;28;20517;-78
2021/11/08 11:40:41;;;;;;;18.30;7.37;;;9.60;79.60;;;;;;4947303;29;20428;-78
2021/11/08 11:43:12;;;;;;;18.43;7.40;;;9.60;79.50;;;;;;4951752;29;20425;-78
2021/11/08 11:45:53;;;;;;;16.63;6.53;;;9.60;79.60;;;;;;4950804;28;20594;-79
2021/11/08 11:48:22;;;;;;;10.97;6.20;;;9.70;79.50;;;;;;4952224;29;20875;-76
2021/11/08 11:50:48;;;;;;;14.83;6.60;;;9.90;79.30;;;;;;4953357;29;20443;-77
2021/11/08 11:53:15;;;;;;;13.03;7.20;;;9.90;79.00;;;;;;4960711;28;20432;-79
2021/11/08 11:55:42;;;;;;;26.53;8.60;;;9.80;78.60;;;;;;4959328;28;20450;-77
2021/11/08 11:58:08;;;;;;;22.90;6.67;;;9.70;79.50;;;;;;4953970;28;20434;-77
2021/11/08 12:00:38;;;;;;;13.60;7.27;;;9.80;78.90;;;;;;4946518;29;20918;-78
2021/11/08 12:03:06;;;;;;;14.67;6.77;;;10.00;79.20;;;;;;4954898;28;20427;-77
2021/11/08 12:05:34;;;;;;;14.40;6.60;;;10.20;77.80;;;;;;4955572;28;20581;-78
2021/11/08 12:08:04;;;;;;;14.90;6.63;;;10.40;77.10;;;;;;4949511;29;20434;-77
2021/11/08 12:10:30;;;;;;;10.73;5.73;;;10.70;76.10;;;;;;4946301;29;20427;-79
2021/11/08 12:12:56;;;;;;;17.13;6.97;;;11.10;74.20;;;;;;4950810;29;20415;-80
2021/11/08 12:15:31;;;;;;;12.57;5.67;;;11.20;72.10;;;;;;4940828;28;20462;-79
2021/11/08 12:18:11;;;;;;;20.57;6.70;;;11.10;71.80;;;;;;4950256;29;20450;-77
2021/11/08 12:20:48;;;;;;;14.00;5.90;;;11.20;72.60;;;;;;4944389;29;20442;-78
2021/11/08 12:23:23;;;;;;;12.80;6.23;;;11.40;72.10;;;;;;4944804;28;20451;-77
2021/11/08 12:25:50;;;;;;;18.97;6.50;;;11.70;71.80;;;;;;4946203;28;20965;-78
2021/11/08 12:28:24;;;;;;;12.73;5.90;;;12.00;70.70;;;;;;4955211;29;21005;-78
2021/11/08 12:30:56;;;;;;;14.30;6.03;;;12.40;70.40;;;;;;4947405;28;20415;-77
2021/11/08 12:33:26;;;;;;;16.33;5.90;;;12.90;69.10;;;;;;4951532;29;20487;-78
2021/11/08 12:35:54;;;;;;;15.80;5.80;;;13.10;67.30;;;;;;4946950;29;20474;-77
2021/11/08 12:38:19;;;;;;;15.53;5.10;;;13.40;66.40;;;;;;4948358;28;20420;-78
2021/11/08 12:40:46;;;;;;;11.30;5.60;;;13.60;65.40;;;;;;4949382;29;20419;-77
2021/11/08 12:43:25;;;;;;;16.80;5.47;;;13.90;64.70;;;;;;4954470;29;20191;-77
2021/11/08 12:45:51;;;;;;;14.40;5.57;;;14.00;62.30;;;;;;4972528;28;20475;-79
2021/11/08 12:48:17;;;;;;;11.93;5.60;;;13.70;62.50;;;;;;4962897;29;20568;-77
2021/11/08 12:50:53;;;;;;;12.60;5.13;;;13.30;63.20;;;;;;4956731;28;20520;-77
2021/11/08 12:53:29;;;;;;;16.27;5.20;;;12.80;65.10;;;;;;4956071;28;20419;-80
2021/11/08 12:55:56;;;;;;;7.90;4.30;;;12.20;65.70;;;;;;4951025;28;20445;-78
2021/11/08 12:58:57;;;;;;;12.20;4.23;;;12.10;66.60;;;;;;4955321;29;21239;-77
2021/11/08 13:01:40;;;;;;;12.93;4.67;;;12.30;67.20;;;;;;4972122;28;20779;-79
2021/11/08 13:04:08;;;;;;;18.70;5.47;;;12.60;66.30;;;;;;4955485;28;20485;-78
2021/11/08 13:06:36;;;;;;;12.70;4.80;;;12.90;66.10;;;;;;4971962;28;20538;-79
2021/11/08 13:09:24;;;;;;;12.80;5.33;;;13.00;64.50;;;;;;4972289;28;20625;-78
2021/11/08 13:11:53;;;;;;;13.87;4.57;;;12.70;64.50;;;;;;4966370;28;20434;-78
2021/11/08 13:14:27;;;;;;;15.40;4.43;;;12.70;65.60;;;;;;4963223;28;20515;-76
2021/11/08 13:17:05;;;;;;;16.13;4.83;;;13.00;65.60;;;;;;4968971;28;20515;-78
2021/11/08 13:19:31;;;;;;;18.40;4.77;;;13.40;64.20;;;;;;4966710;28;20529;-77
2021/11/08 13:22:08;;;;;;;13.17;5.30;;;13.60;63.20;;;;;;4973625;28;20988;-77
2021/11/08 13:24:34;;;;;;;9.10;4.33;;;13.80;62.60;;;;;;4971371;28;20478;-79
2021/11/08 13:27:00;;;;;;;11.23;4.93;;;13.90;61.00;;;;;;4974026;28;20472;-78
2021/11/08 13:29:26;;;;;;;17.77;6.23;;;14.20;60.70;;;;;;4976065;28;20179;-78
2021/11/08 13:31:51;;;;;;;14.83;5.60;;;14.40;58.80;;;;;;4979067;28;20211;-77
2021/11/08 13:34:18;;;;;;;14.30;5.00;;;14.40;58.80;;;;;;4972828;28;20203;-77
2021/11/08 13:36:45;;;;;;;11.57;4.47;;;14.30;58.80;;;;;;4973225;28;20555;-79
2021/11/08 13:39:11;;;;;;;11.20;5.27;;;13.60;59.50;;;;;;4958289;28;20431;-78
2021/11/08 13:41:38;;;;;;;12.47;4.60;;;13.00;62.50;;;;;;4955932;28;20427;-77
2021/11/08 13:44:10;;;;;;;10.27;4.13;;;13.10;62.90;;;;;;4958967;29;20279;-78
2021/11/08 13:46:37;;;;;;;12.40;4.27;;;13.20;62.80;;;;;;4956554;28;21021;-78
2021/11/08 13:49:09;;;;;;;10.83;4.57;;;13.30;61.60;;;;;;4945527;28;20438;-78
2021/11/08 13:51:47;;;;;;;11.20;5.70;;;13.20;61.30;;;;;;4947287;29;20523;-78
2021/11/08 13:54:22;;;;;;;15.07;6.37;;;12.60;65.40;;;;;;4942659;28;20428;-76
2021/11/08 13:56:55;;;;;;;16.57;6.10;;;12.10;68.60;;;;;;4954326;28;20546;-78
2021/11/08 13:59:30;;;;;;;21.70;8.73;;;11.60;70.70;;;;;;4950367;29;20420;-77
2021/11/08 14:02:17;;;;;;;7.63;5.30;;;11.10;73.00;;;;;;4954581;29;20423;-78
2021/11/08 14:04:56;;;;;;;11.67;5.57;;;10.60;73.00;;;;;;4946613;29;20518;-77
2021/11/08 14:07:23;;;;;;;12.90;5.60;;;10.40;73.60;;;;;;4954250;28;20864;-79
2021/11/08 14:09:49;;;;;;;16.43;6.37;;;10.30;74.30;;;;;;4946907;28;20450;-78
2021/11/08 14:12:20;;;;;;;11.30;5.77;;;10.30;74.60;;;;;;4951864;29;20483;-77
2021/11/08 14:14:48;;;;;;;10.90;5.17;;;10.30;74.60;;;;;;4943042;29;20526;-77
2021/11/08 14:17:26;;;;;;;13.27;6.07;;;10.10;73.50;;;;;;4951145;29;20506;-78
2021/11/08 14:19:57;;;;;;;15.73;5.80;;;9.90;74.20;;;;;;4957022;28;20432;-78
2021/11/08 14:22:29;;;;;;;10.50;5.13;;;9.90;74.60;;;;;;4952706;29;20436;-78
2021/11/08 14:24:57;;;;;;;9.33;4.87;;;9.90;74.90;;;;;;4949783;28;20460;-79
2021/11/08 14:27:30;;;;;;;12.77;4.70;;;9.90;72.00;;;;;;4952136;29;20832;-77
2021/11/08 14:29:56;;;;;;;16.07;5.70;;;9.90;73.20;;;;;;4947537;28;20432;-77
2021/11/08 14:32:26;;;;;;;12.83;4.50;;;10.00;73.50;;;;;;4950772;29;20486;-77
2021/11/08 14:35:09;;;;;;;19.63;5.33;;;10.00;72.60;;;;;;4946998;28;20954;-78
2021/11/08 14:37:43;;;;;;;8.30;4.83;;;9.90;74.80;;;;;;4951380;28;20443;-77
2021/11/08 14:40:16;;;;;;;9.73;5.20;;;9.80;73.90;;;;;;4948912;29;20856;-78
2021/11/08 14:42:41;;;;;;;10.73;5.00;;;9.80;72.90;;;;;;4953030;28;20874;-78
2021/11/08 14:45:17;;;;;;;11.53;5.53;;;9.80;73.60;;;;;;4952191;28;20495;-78